sensor_id;sensor_type;location;lat;lon;timestamp;temperature;humidity
23120;DHT22;11729;50.836;4.330;2022-08-03T00:00:39;23.60;99.90
23120;DHT22;11729;50.836;4.330;2022-08-03T00:03:08;23.70;99.90
23120;DHT22;11729;50.836;4.330;2022-08-03T00:05:33;23.70;99.90
23120;DHT22;11729;50.836;4.330;2022-08-03T00:07:59;23.70;99.90
23120;DHT22;11729;50.836;4.330;2022-08-03T00:10:25;23.60;99.90
23120;DHT22;11729;50.836;4.330;2022-08-03T00:12:51;23.60;99.90
23120;DHT22;11729;50.836;4.330;2022-08-03T00:15:17;23.50;99.90
23120;DHT22;11729;50.836;4.330;2022-08-03T00:17:44;23.50;99.90
23120;DHT22;11729;50.836;4.330;2022-08-03T00:20:10;23.50;99.90
23120;DHT22;11729;50.836;4.330;2022-08-03T00:22:36;23.50;99.90
23120;DHT22;11729;50.836;4.330;2022-08-03T00:25:02;23.50;99.90
23120;DHT22;11729;50.836;4.330;2022-08-03T00:27:28;23.50;99.90
23120;DHT22;11729;50.836;4.330;2022-08-03T00:29:53;23.50;99.90
23120;DHT22;11729;50.836;4.330;2022-08-03T00:32:19;23.40;99.90
23120;DHT22;11729;50.836;4.330;2022-08-03T00:34:44;23.40;99.90
23120;DHT22;11729;50.836;4.330;2022-08-03T00:37:10;23.20;99.90
23120;DHT22;11729;50.836;4.330;2022-08-03T00:39:36;23.30;99.90
23120;DHT22;11729;50.836;4.330;2022-08-03T00:42:05;23.20;99.90
23120;DHT22;11729;50.836;4.330;2022-08-03T00:44:31;23.30;99.90
23120;DHT22;11729;50.836;4.330;2022-08-03T00:47:03;23.20;99.90
23120;DHT22;11729;50.836;4.330;2022-08-03T00:49:28;23.20;99.90
23120;DHT22;11729;50.836;4.330;2022-08-03T00:51:54;23.10;99.90
23120;DHT22;11729;50.836;4.330;2022-08-03T00:54:20;23.00;99.90
23120;DHT22;11729;50.836;4.330;2022-08-03T00:56:46;23.10;99.90
23120;DHT22;11729;50.836;4.330;2022-08-03T00:59:13;23.00;99.90
23120;DHT22;11729;50.836;4.330;2022-08-03T01:01:39;23.00;99.90
23120;DHT22;11729;50.836;4.330;2022-08-03T01:04:04;23.00;99.90
23120;DHT22;11729;50.836;4.330;2022-08-03T01:06:40;22.90;99.90
23120;DHT22;11729;50.836;4.330;2022-08-03T01:09:14;22.90;99.90
23120;DHT22;11729;50.836;4.330;2022-08-03T01:12:07;22.90;99.90
23120;DHT22;11729;50.836;4.330;2022-08-03T01:15:09;22.70;99.90
23120;DHT22;11729;50.836;4.330;2022-08-03T01:20:23;22.70;99.90
23120;DHT22;11729;50.836;4.330;2022-08-03T01:28:25;22.60;99.90
23120;DHT22;11729;50.836;4.330;2022-08-03T01:30:56;22.60;99.90
23120;DHT22;11729;50.836;4.330;2022-08-03T01:33:35;22.70;99.90
23120;DHT22;11729;50.836;4.330;2022-08-03T01:36:04;22.60;99.90
23120;DHT22;11729;50.836;4.330;2022-08-03T01:38:34;22.50;99.90
23120;DHT22;11729;50.836;4.330;2022-08-03T01:41:10;22.50;99.90
23120;DHT22;11729;50.836;4.330;2022-08-03T01:43:37;22.50;99.90
23120;DHT22;11729;50.836;4.330;2022-08-03T01:46:05;22.40;99.90
23120;DHT22;11729;50.836;4.330;2022-08-03T01:48:39;22.40;99.90
23120;DHT22;11729;50.836;4.330;2022-08-03T01:51:08;22.40;99.90
23120;DHT22;11729;50.836;4.330;2022-08-03T01:53:37;22.30;99.90
23120;DHT22;11729;50.836;4.330;2022-08-03T01:56:07;22.30;99.90
23120;DHT22;11729;50.836;4.330;2022-08-03T01:58:34;22.40;99.90
23120;DHT22;11729;50.836;4.330;2022-08-03T02:01:02;22.40;99.90
23120;DHT22;11729;50.836;4.330;2022-08-03T02:03:28;22.40;99.90
23120;DHT22;11729;50.836;4.330;2022-08-03T02:05:55;22.30;99.90
23120;DHT22;11729;50.836;4.330;2022-08-03T02:08:23;22.30;99.90
23120;DHT22;11729;50.836;4.330;2022-08-03T02:10:49;22.20;99.90
23120;DHT22;11729;50.836;4.330;2022-08-03T02:13:17;22.20;99.90
23120;DHT22;11729;50.836;4.330;2022-08-03T02:15:43;22.10;99.90
23120;DHT22;11729;50.836;4.330;2022-08-03T02:18:10;22.10;99.90
23120;DHT22;11729;50.836;4.330;2022-08-03T02:20:38;22.10;99.90
23120;DHT22;11729;50.836;4.330;2022-08-03T02:23:04;22.00;99.90
23120;DHT22;11729;50.836;4.330;2022-08-03T02:25:32;22.00;99.90
23120;DHT22;11729;50.836;4.330;2022-08-03T02:28:05;22.10;99.90
23120;DHT22;11729;50.836;4.330;2022-08-03T02:30:35;22.00;99.90
23120;DHT22;11729;50.836;4.330;2022-08-03T02:33:06;22.00;99.90
23120;DHT22;11729;50.836;4.330;2022-08-03T02:35:35;22.00;99.90
23120;DHT22;11729;50.836;4.330;2022-08-03T02:38:04;21.90;99.90
23120;DHT22;11729;50.836;4.330;2022-08-03T02:40:32;21.90;99.90
23120;DHT22;11729;50.836;4.330;2022-08-03T02:43:08;21.80;99.90
23120;DHT22;11729;50.836;4.330;2022-08-03T02:45:35;21.90;99.90
23120;DHT22;11729;50.836;4.330;2022-08-03T02:48:04;21.80;99.90
23120;DHT22;11729;50.836;4.330;2022-08-03T02:50:32;21.80;99.90
23120;DHT22;11729;50.836;4.330;2022-08-03T02:53:00;21.80;99.90
23120;DHT22;11729;50.836;4.330;2022-08-03T02:55:27;21.70;99.90
23120;DHT22;11729;50.836;4.330;2022-08-03T02:57:54;21.60;99.90
23120;DHT22;11729;50.836;4.330;2022-08-03T03:00:20;21.70;99.90
23120;DHT22;11729;50.836;4.330;2022-08-03T03:02:46;21.60;99.90
23120;DHT22;11729;50.836;4.330;2022-08-03T03:05:14;21.60;99.90
23120;DHT22;11729;50.836;4.330;2022-08-03T03:07:41;21.60;99.90
23120;DHT22;11729;50.836;4.330;2022-08-03T03:10:07;21.50;99.90
23120;DHT22;11729;50.836;4.330;2022-08-03T03:12:35;21.50;99.90
23120;DHT22;11729;50.836;4.330;2022-08-03T03:15:01;21.40;99.90
23120;DHT22;11729;50.836;4.330;2022-08-03T03:17:28;21.40;99.90
23120;DHT22;11729;50.836;4.330;2022-08-03T03:19:55;21.40;99.90
23120;DHT22;11729;50.836;4.330;2022-08-03T03:22:22;21.40;99.90
23120;DHT22;11729;50.836;4.330;2022-08-03T03:24:49;21.30;99.90
23120;DHT22;11729;50.836;4.330;2022-08-03T03:27:16;21.40;99.90
23120;DHT22;11729;50.836;4.330;2022-08-03T03:29:42;21.40;99.90
23120;DHT22;11729;50.836;4.330;2022-08-03T03:32:09;21.20;99.90
23120;DHT22;11729;50.836;4.330;2022-08-03T03:34:35;21.30;99.90
23120;DHT22;11729;50.836;4.330;2022-08-03T03:37:01;21.30;99.90
23120;DHT22;11729;50.836;4.330;2022-08-03T03:39:27;21.30;99.90
23120;DHT22;11729;50.836;4.330;2022-08-03T03:41:53;21.30;99.90
23120;DHT22;11729;50.836;4.330;2022-08-03T03:44:19;21.30;99.90
23120;DHT22;11729;50.836;4.330;2022-08-03T03:46:44;21.30;99.90
23120;DHT22;11729;50.836;4.330;2022-08-03T03:49:10;21.30;99.90
23120;DHT22;11729;50.836;4.330;2022-08-03T03:51:36;21.20;99.90
23120;DHT22;11729;50.836;4.330;2022-08-03T03:54:03;21.20;99.90
23120;DHT22;11729;50.836;4.330;2022-08-03T03:56:31;21.20;99.90
23120;DHT22;11729;50.836;4.330;2022-08-03T03:58:57;21.10;99.90
23120;DHT22;11729;50.836;4.330;2022-08-03T04:01:22;21.10;99.90
23120;DHT22;11729;50.836;4.330;2022-08-03T04:03:48;21.20;99.90
23120;DHT22;11729;50.836;4.330;2022-08-03T04:06:14;21.20;99.90
23120;DHT22;11729;50.836;4.330;2022-08-03T04:08:59;21.10;99.90
23120;DHT22;11729;50.836;4.330;2022-08-03T04:11:27;21.10;99.90
23120;DHT22;11729;50.836;4.330;2022-08-03T04:16:44;21.10;99.90
23120;DHT22;11729;50.836;4.330;2022-08-03T04:19:41;21.20;99.90
23120;DHT22;11729;50.836;4.330;2022-08-03T04:22:08;21.10;99.90
23120;DHT22;11729;50.836;4.330;2022-08-03T04:24:42;21.00;99.90
23120;DHT22;11729;50.836;4.330;2022-08-03T04:27:11;21.00;99.90
23120;DHT22;11729;50.836;4.330;2022-08-03T04:29:40;20.90;99.90
23120;DHT22;11729;50.836;4.330;2022-08-03T04:32:07;21.00;99.90
23120;DHT22;11729;50.836;4.330;2022-08-03T04:34:33;21.00;99.90
23120;DHT22;11729;50.836;4.330;2022-08-03T04:37:04;21.10;99.90
23120;DHT22;11729;50.836;4.330;2022-08-03T04:39:31;21.20;99.90
23120;DHT22;11729;50.836;4.330;2022-08-03T04:42:00;21.20;99.90
23120;DHT22;11729;50.836;4.330;2022-08-03T04:44:27;21.20;99.90
23120;DHT22;11729;50.836;4.330;2022-08-03T04:46:53;21.20;99.90
23120;DHT22;11729;50.836;4.330;2022-08-03T04:49:20;21.10;99.90
23120;DHT22;11729;50.836;4.330;2022-08-03T04:51:48;21.00;99.90
23120;DHT22;11729;50.836;4.330;2022-08-03T04:54:14;21.00;99.90
23120;DHT22;11729;50.836;4.330;2022-08-03T04:56:43;21.00;99.90
23120;DHT22;11729;50.836;4.330;2022-08-03T04:59:09;21.00;99.90
23120;DHT22;11729;50.836;4.330;2022-08-03T05:01:35;21.00;99.90
23120;DHT22;11729;50.836;4.330;2022-08-03T05:04:02;21.10;99.90
23120;DHT22;11729;50.836;4.330;2022-08-03T05:06:27;21.10;99.90
23120;DHT22;11729;50.836;4.330;2022-08-03T05:08:53;21.30;99.90
23120;DHT22;11729;50.836;4.330;2022-08-03T05:11:19;21.50;99.90
23120;DHT22;11729;50.836;4.330;2022-08-03T05:13:45;21.70;99.90
23120;DHT22;11729;50.836;4.330;2022-08-03T05:16:11;21.80;99.90
23120;DHT22;11729;50.836;4.330;2022-08-03T05:18:40;21.90;99.90
23120;DHT22;11729;50.836;4.330;2022-08-03T05:21:06;21.90;99.90
23120;DHT22;11729;50.836;4.330;2022-08-03T05:23:33;22.00;99.90
23120;DHT22;11729;50.836;4.330;2022-08-03T05:25:59;22.00;99.90
23120;DHT22;11729;50.836;4.330;2022-08-03T05:28:24;21.90;99.90
23120;DHT22;11729;50.836;4.330;2022-08-03T05:30:50;21.90;99.90
23120;DHT22;11729;50.836;4.330;2022-08-03T05:33:15;22.00;99.90
23120;DHT22;11729;50.836;4.330;2022-08-03T05:35:41;22.10;99.90
23120;DHT22;11729;50.836;4.330;2022-08-03T05:38:07;22.10;99.90
23120;DHT22;11729;50.836;4.330;2022-08-03T05:40:33;22.20;99.90
23120;DHT22;11729;50.836;4.330;2022-08-03T05:42:59;22.20;99.90
23120;DHT22;11729;50.836;4.330;2022-08-03T05:45:25;22.30;99.90
23120;DHT22;11729;50.836;4.330;2022-08-03T05:47:50;22.30;99.90
23120;DHT22;11729;50.836;4.330;2022-08-03T05:50:17;22.40;99.90
23120;DHT22;11729;50.836;4.330;2022-08-03T05:52:43;22.40;99.90
23120;DHT22;11729;50.836;4.330;2022-08-03T05:55:10;22.30;99.90
23120;DHT22;11729;50.836;4.330;2022-08-03T05:57:36;22.20;99.90
23120;DHT22;11729;50.836;4.330;2022-08-03T06:00:06;22.30;99.90
23120;DHT22;11729;50.836;4.330;2022-08-03T06:02:32;22.50;99.90
23120;DHT22;11729;50.836;4.330;2022-08-03T06:04:58;22.70;99.90
23120;DHT22;11729;50.836;4.330;2022-08-03T06:07:23;22.90;99.90
23120;DHT22;11729;50.836;4.330;2022-08-03T06:09:49;23.90;99.90
23120;DHT22;11729;50.836;4.330;2022-08-03T06:12:15;25.60;99.90
23120;DHT22;11729;50.836;4.330;2022-08-03T06:14:41;27.50;99.90
23120;DHT22;11729;50.836;4.330;2022-08-03T06:17:06;29.20;99.90
23120;DHT22;11729;50.836;4.330;2022-08-03T06:19:32;30.30;99.90
23120;DHT22;11729;50.836;4.330;2022-08-03T06:21:58;31.70;99.90
23120;DHT22;11729;50.836;4.330;2022-08-03T06:24:23;32.80;97.10
23120;DHT22;11729;50.836;4.330;2022-08-03T06:26:49;33.70;94.40
23120;DHT22;11729;50.836;4.330;2022-08-03T06:29:14;34.60;91.90
23120;DHT22;11729;50.836;4.330;2022-08-03T06:31:40;35.50;88.00
23120;DHT22;11729;50.836;4.330;2022-08-03T06:34:05;36.00;84.00
23120;DHT22;11729;50.836;4.330;2022-08-03T06:36:31;36.50;79.40
23120;DHT22;11729;50.836;4.330;2022-08-03T06:38:58;37.10;77.10
23120;DHT22;11729;50.836;4.330;2022-08-03T06:41:24;37.40;73.40
23120;DHT22;11729;50.836;4.330;2022-08-03T06:43:50;36.70;74.70
23120;DHT22;11729;50.836;4.330;2022-08-03T06:46:15;37.30;72.90
23120;DHT22;11729;50.836;4.330;2022-08-03T06:48:41;37.40;70.80
23120;DHT22;11729;50.836;4.330;2022-08-03T06:51:07;37.10;72.00
23120;DHT22;11729;50.836;4.330;2022-08-03T06:53:33;37.60;69.10
23120;DHT22;11729;50.836;4.330;2022-08-03T06:55:59;38.00;68.20
23120;DHT22;11729;50.836;4.330;2022-08-03T06:58:24;38.40;66.90
23120;DHT22;11729;50.836;4.330;2022-08-03T07:00:50;39.20;65.10
23120;DHT22;11729;50.836;4.330;2022-08-03T07:03:16;39.30;62.90
23120;DHT22;11729;50.836;4.330;2022-08-03T07:05:42;39.90;61.90
23120;DHT22;11729;50.836;4.330;2022-08-03T07:08:09;40.10;60.50
23120;DHT22;11729;50.836;4.330;2022-08-03T07:10:35;39.70;60.40
23120;DHT22;11729;50.836;4.330;2022-08-03T07:13:01;39.70;59.60
23120;DHT22;11729;50.836;4.330;2022-08-03T07:15:27;40.40;58.10
23120;DHT22;11729;50.836;4.330;2022-08-03T07:17:52;40.30;57.70
23120;DHT22;11729;50.836;4.330;2022-08-03T07:20:18;40.50;57.80
23120;DHT22;11729;50.836;4.330;2022-08-03T07:22:44;41.00;56.60
23120;DHT22;11729;50.836;4.330;2022-08-03T07:25:09;41.10;56.00
23120;DHT22;11729;50.836;4.330;2022-08-03T07:27:35;41.10;55.80
23120;DHT22;11729;50.836;4.330;2022-08-03T07:30:04;40.80;56.20
23120;DHT22;11729;50.836;4.330;2022-08-03T07:32:30;41.30;54.90
23120;DHT22;11729;50.836;4.330;2022-08-03T07:34:55;41.10;54.20
23120;DHT22;11729;50.836;4.330;2022-08-03T07:37:21;41.00;53.90
23120;DHT22;11729;50.836;4.330;2022-08-03T07:39:47;41.10;53.60
23120;DHT22;11729;50.836;4.330;2022-08-03T07:42:13;40.60;54.20
23120;DHT22;11729;50.836;4.330;2022-08-03T07:44:39;40.10;55.20
23120;DHT22;11729;50.836;4.330;2022-08-03T07:47:05;39.90;54.70
23120;DHT22;11729;50.836;4.330;2022-08-03T07:49:30;40.00;54.30
23120;DHT22;11729;50.836;4.330;2022-08-03T07:51:56;39.60;54.60
23120;DHT22;11729;50.836;4.330;2022-08-03T07:54:40;40.30;53.90
23120;DHT22;11729;50.836;4.330;2022-08-03T07:57:06;40.30;53.80
23120;DHT22;11729;50.836;4.330;2022-08-03T07:59:31;40.60;53.40
23120;DHT22;11729;50.836;4.330;2022-08-03T08:01:59;40.70;53.20
23120;DHT22;11729;50.836;4.330;2022-08-03T08:04:25;41.10;52.30
23120;DHT22;11729;50.836;4.330;2022-08-03T08:06:50;41.50;52.40
23120;DHT22;11729;50.836;4.330;2022-08-03T08:09:16;41.60;51.90
23120;DHT22;11729;50.836;4.330;2022-08-03T08:11:41;41.70;51.00
23120;DHT22;11729;50.836;4.330;2022-08-03T08:14:07;41.70;51.30
23120;DHT22;11729;50.836;4.330;2022-08-03T08:16:34;41.70;51.30
23120;DHT22;11729;50.836;4.330;2022-08-03T08:19:00;41.70;50.50
23120;DHT22;11729;50.836;4.330;2022-08-03T08:21:26;41.90;49.80
23120;DHT22;11729;50.836;4.330;2022-08-03T08:23:52;42.00;50.30
23120;DHT22;11729;50.836;4.330;2022-08-03T08:26:18;42.30;49.90
23120;DHT22;11729;50.836;4.330;2022-08-03T08:28:43;42.10;49.00
23120;DHT22;11729;50.836;4.330;2022-08-03T08:31:09;42.00;49.60
23120;DHT22;11729;50.836;4.330;2022-08-03T08:33:35;42.00;49.40
23120;DHT22;11729;50.836;4.330;2022-08-03T08:36:00;42.20;48.70
23120;DHT22;11729;50.836;4.330;2022-08-03T08:38:26;42.00;48.90
23120;DHT22;11729;50.836;4.330;2022-08-03T08:40:54;40.60;50.40
23120;DHT22;11729;50.836;4.330;2022-08-03T08:43:20;41.40;49.50
23120;DHT22;11729;50.836;4.330;2022-08-03T08:45:48;42.40;48.10
23120;DHT22;11729;50.836;4.330;2022-08-03T08:48:22;42.90;48.60
23120;DHT22;11729;50.836;4.330;2022-08-03T08:50:52;43.10;46.70
23120;DHT22;11729;50.836;4.330;2022-08-03T08:53:19;43.40;46.70
23120;DHT22;11729;50.836;4.330;2022-08-03T08:55:46;43.20;45.80
23120;DHT22;11729;50.836;4.330;2022-08-03T08:58:15;42.40;47.10
23120;DHT22;11729;50.836;4.330;2022-08-03T09:00:44;42.50;46.90
23120;DHT22;11729;50.836;4.330;2022-08-03T09:03:11;42.50;46.60
23120;DHT22;11729;50.836;4.330;2022-08-03T09:05:41;42.70;46.40
23120;DHT22;11729;50.836;4.330;2022-08-03T09:08:07;42.80;45.70
23120;DHT22;11729;50.836;4.330;2022-08-03T09:10:33;42.80;46.30
23120;DHT22;11729;50.836;4.330;2022-08-03T09:12:59;42.20;46.80
23120;DHT22;11729;50.836;4.330;2022-08-03T09:15:28;42.40;46.10
23120;DHT22;11729;50.836;4.330;2022-08-03T09:17:57;42.70;45.40
23120;DHT22;11729;50.836;4.330;2022-08-03T09:20:24;42.90;45.90
23120;DHT22;11729;50.836;4.330;2022-08-03T09:22:58;43.30;45.80
23120;DHT22;11729;50.836;4.330;2022-08-03T09:25:34;43.60;45.30
23120;DHT22;11729;50.836;4.330;2022-08-03T09:28:08;43.00;44.40
23120;DHT22;11729;50.836;4.330;2022-08-03T09:30:35;43.10;44.40
23120;DHT22;11729;50.836;4.330;2022-08-03T09:33:01;43.10;45.20
23120;DHT22;11729;50.836;4.330;2022-08-03T09:35:27;43.90;43.10
23120;DHT22;11729;50.836;4.330;2022-08-03T09:38:11;43.00;42.80
23120;DHT22;11729;50.836;4.330;2022-08-03T09:40:37;42.20;44.00
23120;DHT22;11729;50.836;4.330;2022-08-03T09:43:03;42.70;44.70
23120;DHT22;11729;50.836;4.330;2022-08-03T09:45:28;42.70;43.90
23120;DHT22;11729;50.836;4.330;2022-08-03T09:47:54;43.00;44.20
23120;DHT22;11729;50.836;4.330;2022-08-03T09:50:21;42.80;44.50
23120;DHT22;11729;50.836;4.330;2022-08-03T09:52:46;42.60;44.50
23120;DHT22;11729;50.836;4.330;2022-08-03T09:55:15;42.80;44.40
23120;DHT22;11729;50.836;4.330;2022-08-03T09:57:43;43.30;44.70
23120;DHT22;11729;50.836;4.330;2022-08-03T10:00:12;43.30;44.40
23120;DHT22;11729;50.836;4.330;2022-08-03T10:02:39;43.50;44.60
23120;DHT22;11729;50.836;4.330;2022-08-03T10:05:06;43.10;43.90
23120;DHT22;11729;50.836;4.330;2022-08-03T10:07:48;42.50;44.40
23120;DHT22;11729;50.836;4.330;2022-08-03T10:10:16;42.70;44.70
23120;DHT22;11729;50.836;4.330;2022-08-03T10:12:42;42.50;45.90
23120;DHT22;11729;50.836;4.330;2022-08-03T10:15:08;42.10;45.70
23120;DHT22;11729;50.836;4.330;2022-08-03T10:17:35;42.30;45.50
23120;DHT22;11729;50.836;4.330;2022-08-03T10:20:01;42.80;44.80
23120;DHT22;11729;50.836;4.330;2022-08-03T10:22:35;43.30;44.50
23120;DHT22;11729;50.836;4.330;2022-08-03T10:25:09;43.70;44.10
23120;DHT22;11729;50.836;4.330;2022-08-03T10:27:38;43.50;43.40
23120;DHT22;11729;50.836;4.330;2022-08-03T10:30:08;42.80;44.60
23120;DHT22;11729;50.836;4.330;2022-08-03T10:35:11;42.30;45.40
23120;DHT22;11729;50.836;4.330;2022-08-03T10:37:43;42.90;44.80
23120;DHT22;11729;50.836;4.330;2022-08-03T10:40:12;42.70;45.30
23120;DHT22;11729;50.836;4.330;2022-08-03T10:42:45;43.10;44.30
23120;DHT22;11729;50.836;4.330;2022-08-03T10:45:23;41.90;44.60
23120;DHT22;11729;50.836;4.330;2022-08-03T10:47:50;41.80;45.80
23120;DHT22;11729;50.836;4.330;2022-08-03T10:50:17;41.40;46.60
23120;DHT22;11729;50.836;4.330;2022-08-03T10:55:45;41.80;46.90
23120;DHT22;11729;50.836;4.330;2022-08-03T11:01:01;41.10;46.70
23120;DHT22;11729;50.836;4.330;2022-08-03T11:03:27;41.10;46.40
23120;DHT22;11729;50.836;4.330;2022-08-03T11:05:52;41.30;46.50
23120;DHT22;11729;50.836;4.330;2022-08-03T11:08:38;41.30;46.20
23120;DHT22;11729;50.836;4.330;2022-08-03T11:13:56;41.60;45.60
23120;DHT22;11729;50.836;4.330;2022-08-03T11:16:22;40.20;47.90
23120;DHT22;11729;50.836;4.330;2022-08-03T11:19:03;40.60;47.90
23120;DHT22;11729;50.836;4.330;2022-08-03T11:21:55;40.30;48.00
23120;DHT22;11729;50.836;4.330;2022-08-03T11:30:09;41.20;47.30
23120;DHT22;11729;50.836;4.330;2022-08-03T11:37:35;40.70;47.20
23120;DHT22;11729;50.836;4.330;2022-08-03T11:40:01;40.60;46.50
23120;DHT22;11729;50.836;4.330;2022-08-03T11:44:57;41.10;46.00
23120;DHT22;11729;50.836;4.330;2022-08-03T11:47:25;40.80;47.20
23120;DHT22;11729;50.836;4.330;2022-08-03T11:49:56;41.30;46.80
23120;DHT22;11729;50.836;4.330;2022-08-03T11:52:24;41.10;46.50
23120;DHT22;11729;50.836;4.330;2022-08-03T11:54:50;41.50;45.80
23120;DHT22;11729;50.836;4.330;2022-08-03T11:57:33;42.50;44.20
23120;DHT22;11729;50.836;4.330;2022-08-03T11:59:59;42.10;44.10
23120;DHT22;11729;50.836;4.330;2022-08-03T12:02:25;42.20;44.40
23120;DHT22;11729;50.836;4.330;2022-08-03T12:04:57;42.20;44.60
23120;DHT22;11729;50.836;4.330;2022-08-03T12:07:25;42.50;44.00
23120;DHT22;11729;50.836;4.330;2022-08-03T12:10:10;42.60;43.70
23120;DHT22;11729;50.836;4.330;2022-08-03T12:12:41;43.00;43.20
23120;DHT22;11729;50.836;4.330;2022-08-03T12:15:11;43.50;43.10
23120;DHT22;11729;50.836;4.330;2022-08-03T12:17:41;43.30;42.60
23120;DHT22;11729;50.836;4.330;2022-08-03T12:20:08;43.20;42.10
23120;DHT22;11729;50.836;4.330;2022-08-03T12:22:38;42.60;42.90
23120;DHT22;11729;50.836;4.330;2022-08-03T12:25:05;42.60;42.90
23120;DHT22;11729;50.836;4.330;2022-08-03T12:27:31;42.10;43.40
23120;DHT22;11729;50.836;4.330;2022-08-03T12:29:58;42.40;43.40
23120;DHT22;11729;50.836;4.330;2022-08-03T12:32:26;42.60;42.90
23120;DHT22;11729;50.836;4.330;2022-08-03T12:34:52;43.30;42.80
23120;DHT22;11729;50.836;4.330;2022-08-03T12:37:18;43.80;41.50
23120;DHT22;11729;50.836;4.330;2022-08-03T12:39:49;44.50;40.20
23120;DHT22;11729;50.836;4.330;2022-08-03T12:42:15;44.10;40.40
23120;DHT22;11729;50.836;4.330;2022-08-03T12:44:41;44.30;40.60
23120;DHT22;11729;50.836;4.330;2022-08-03T12:47:06;44.30;39.80
23120;DHT22;11729;50.836;4.330;2022-08-03T12:50:03;43.10;40.40
23120;DHT22;11729;50.836;4.330;2022-08-03T12:52:41;43.20;41.90
23120;DHT22;11729;50.836;4.330;2022-08-03T12:55:07;43.80;40.60
23120;DHT22;11729;50.836;4.330;2022-08-03T12:57:44;44.10;40.30
23120;DHT22;11729;50.836;4.330;2022-08-03T13:00:14;44.00;40.40
23120;DHT22;11729;50.836;4.330;2022-08-03T13:02:40;44.90;39.80
23120;DHT22;11729;50.836;4.330;2022-08-03T13:05:10;44.40;39.50
23120;DHT22;11729;50.836;4.330;2022-08-03T13:07:43;45.10;39.60
23120;DHT22;11729;50.836;4.330;2022-08-03T13:10:10;44.00;39.40
23120;DHT22;11729;50.836;4.330;2022-08-03T13:12:49;43.50;40.70
23120;DHT22;11729;50.836;4.330;2022-08-03T13:15:15;44.10;40.10
23120;DHT22;11729;50.836;4.330;2022-08-03T13:17:41;43.80;39.80
23120;DHT22;11729;50.836;4.330;2022-08-03T13:20:07;44.40;39.10
23120;DHT22;11729;50.836;4.330;2022-08-03T13:22:33;44.50;39.20
23120;DHT22;11729;50.836;4.330;2022-08-03T13:24:59;44.50;39.70
23120;DHT22;11729;50.836;4.330;2022-08-03T13:27:26;45.40;39.10
23120;DHT22;11729;50.836;4.330;2022-08-03T13:29:53;45.50;37.30
23120;DHT22;11729;50.836;4.330;2022-08-03T13:32:18;43.90;38.80
23120;DHT22;11729;50.836;4.330;2022-08-03T13:34:45;44.10;39.40
23120;DHT22;11729;50.836;4.330;2022-08-03T13:37:11;44.30;39.30
23120;DHT22;11729;50.836;4.330;2022-08-03T13:39:37;44.50;38.90
23120;DHT22;11729;50.836;4.330;2022-08-03T13:42:03;45.40;38.40
23120;DHT22;11729;50.836;4.330;2022-08-03T13:44:30;45.90;37.00
23120;DHT22;11729;50.836;4.330;2022-08-03T13:46:56;46.20;37.60
23120;DHT22;11729;50.836;4.330;2022-08-03T13:49:21;46.60;36.60
23120;DHT22;11729;50.836;4.330;2022-08-03T13:51:47;45.40;37.70
23120;DHT22;11729;50.836;4.330;2022-08-03T13:54:12;43.90;38.70
23120;DHT22;11729;50.836;4.330;2022-08-03T13:56:39;41.90;40.20
23120;DHT22;11729;50.836;4.330;2022-08-03T13:59:05;40.80;42.40
23120;DHT22;11729;50.836;4.330;2022-08-03T14:01:30;39.90;43.60
23120;DHT22;11729;50.836;4.330;2022-08-03T14:03:56;39.50;44.10
23120;DHT22;11729;50.836;4.330;2022-08-03T14:06:23;39.10;45.10
23120;DHT22;11729;50.836;4.330;2022-08-03T14:08:49;38.60;45.50
23120;DHT22;11729;50.836;4.330;2022-08-03T14:11:15;37.70;46.50
23120;DHT22;11729;50.836;4.330;2022-08-03T14:13:41;37.50;47.30
23120;DHT22;11729;50.836;4.330;2022-08-03T14:16:07;36.90;47.90
23120;DHT22;11729;50.836;4.330;2022-08-03T14:18:32;36.80;48.20
23120;DHT22;11729;50.836;4.330;2022-08-03T14:20:58;36.80;48.10
23120;DHT22;11729;50.836;4.330;2022-08-03T14:23:24;36.60;48.50
23120;DHT22;11729;50.836;4.330;2022-08-03T14:25:50;36.40;48.20
23120;DHT22;11729;50.836;4.330;2022-08-03T14:28:17;36.20;49.50
23120;DHT22;11729;50.836;4.330;2022-08-03T14:30:42;36.20;49.20
23120;DHT22;11729;50.836;4.330;2022-08-03T14:33:08;35.90;49.40
23120;DHT22;11729;50.836;4.330;2022-08-03T14:35:37;36.00;49.50
23120;DHT22;11729;50.836;4.330;2022-08-03T14:38:02;36.00;49.70
23120;DHT22;11729;50.836;4.330;2022-08-03T14:40:28;35.90;49.50
23120;DHT22;11729;50.836;4.330;2022-08-03T14:42:53;36.00;49.40
23120;DHT22;11729;50.836;4.330;2022-08-03T14:45:19;35.80;50.20
23120;DHT22;11729;50.836;4.330;2022-08-03T14:47:45;35.00;50.80
23120;DHT22;11729;50.836;4.330;2022-08-03T14:50:11;35.10;51.70
23120;DHT22;11729;50.836;4.330;2022-08-03T14:52:36;35.30;52.00
23120;DHT22;11729;50.836;4.330;2022-08-03T14:55:02;35.40;51.40
23120;DHT22;11729;50.836;4.330;2022-08-03T14:57:27;35.40;51.40
23120;DHT22;11729;50.836;4.330;2022-08-03T14:59:53;35.50;51.10
23120;DHT22;11729;50.836;4.330;2022-08-03T15:02:19;35.60;51.60
23120;DHT22;11729;50.836;4.330;2022-08-03T15:04:44;35.80;50.40
23120;DHT22;11729;50.836;4.330;2022-08-03T15:07:10;35.70;50.80
23120;DHT22;11729;50.836;4.330;2022-08-03T15:09:36;35.80;51.70
23120;DHT22;11729;50.836;4.330;2022-08-03T15:12:04;35.70;52.00
23120;DHT22;11729;50.836;4.330;2022-08-03T15:14:31;35.00;51.60
23120;DHT22;11729;50.836;4.330;2022-08-03T15:16:57;35.00;52.20
23120;DHT22;11729;50.836;4.330;2022-08-03T15:19:22;35.00;52.60
23120;DHT22;11729;50.836;4.330;2022-08-03T15:21:48;35.10;52.10
23120;DHT22;11729;50.836;4.330;2022-08-03T15:24:13;35.10;52.60
23120;DHT22;11729;50.836;4.330;2022-08-03T15:26:39;35.30;52.60
23120;DHT22;11729;50.836;4.330;2022-08-03T15:29:05;35.40;52.00
23120;DHT22;11729;50.836;4.330;2022-08-03T15:31:32;35.60;51.80
23120;DHT22;11729;50.836;4.330;2022-08-03T15:33:58;35.50;52.20
23120;DHT22;11729;50.836;4.330;2022-08-03T15:36:23;35.50;52.40
23120;DHT22;11729;50.836;4.330;2022-08-03T15:38:50;35.40;51.30
23120;DHT22;11729;50.836;4.330;2022-08-03T15:41:16;35.30;52.60
23120;DHT22;11729;50.836;4.330;2022-08-03T15:43:41;35.20;52.90
23120;DHT22;11729;50.836;4.330;2022-08-03T15:46:07;35.30;52.90
23120;DHT22;11729;50.836;4.330;2022-08-03T15:48:33;35.40;52.80
23120;DHT22;11729;50.836;4.330;2022-08-03T15:50:59;35.30;52.80
23120;DHT22;11729;50.836;4.330;2022-08-03T15:53:24;35.10;52.80
23120;DHT22;11729;50.836;4.330;2022-08-03T15:55:50;35.30;52.70
23120;DHT22;11729;50.836;4.330;2022-08-03T15:58:15;35.30;53.00
23120;DHT22;11729;50.836;4.330;2022-08-03T16:00:42;35.20;52.50
23120;DHT22;11729;50.836;4.330;2022-08-03T16:03:08;35.00;53.00
23120;DHT22;11729;50.836;4.330;2022-08-03T16:05:37;35.00;53.20
23120;DHT22;11729;50.836;4.330;2022-08-03T16:08:02;35.00;52.70